Search for airport 
image banner adimage banner ad
image banner ad

DAUZ - Zarzaitine / In Amenas

Located in Zarzaitine, Algeria

ICAO - DAUZ, IATA - IAM

Data provided by Airmate  

General information

Coordinates: N28°3'5" E9°38'34"
Elevation is 1843 feet MSL.
 
Rated:
View ratings: [VIEW]


View others Airports in Illizi Province

Operational data

Open for public use
Current time UTC:
Current local time:
Weather
METAR: DAUZ 070100Z 01014KT 8000 NSC 30/14 Q1011
TAF: TAF DAUZ 062300Z 0700/0724 02014KT 8000 NSC PROB30 TEMPO 0700/0704 3000 HZ BECMG 0706/0709 26010KT PROB40 TEMPO 0718/0724 3000 HZ BECMG 0721/0724 35012KT
View NOTAMs / SUP AIP / TFR affecting this airport [VIEW]
Communications frequencies: [VIEW]

Runways:

RWY identifierQFULength (ft)Width (ft)SurfaceLDA (ft)
0547°9843148ASP
23227°9843148
14145°721898
32325°721898

Airport contact information

Address: Zarzaitine Algeria

Satellite view of DAUZ